createdAt,value
2022-09-05T00:00:21.397Z,1.63
2022-09-05T00:03:08.718Z,1.40
2022-09-05T00:06:02.896Z,1.30
2022-09-05T00:08:51.355Z,1.40
2022-09-05T00:11:41.629Z,1.30
2022-09-05T00:15:16.971Z,1.30
2022-09-05T00:18:06.320Z,1.50
2022-09-05T00:24:27.971Z,1.83
2022-09-05T00:24:28.181Z,1.20
2022-09-05T00:26:36.929Z,1.67
2022-09-05T00:29:47.827Z,1.10
2022-09-05T00:32:22.624Z,1.50
2022-09-05T00:35:09.694Z,1.60
2022-09-05T00:37:44.329Z,1.40
2022-09-05T00:40:26.004Z,1.53
2022-09-05T00:42:58.306Z,1.80
2022-09-05T00:45:34.735Z,1.47
2022-09-05T00:48:13.606Z,1.30
2022-09-05T00:51:06.937Z,1.30
2022-09-05T00:53:46.598Z,1.40
2022-09-05T00:56:28.705Z,1.50
2022-09-05T00:59:11.425Z,1.50
2022-09-05T01:01:47.533Z,1.40
2022-09-05T01:04:34.384Z,1.33
2022-09-05T01:07:14.726Z,1.50
2022-09-05T01:09:52.574Z,1.40
2022-09-05T01:12:52.753Z,1.60
2022-09-05T01:15:32.371Z,1.50
2022-09-05T01:18:27.124Z,1.50
2022-09-05T01:21:22.278Z,1.63
2022-09-05T01:24:10.322Z,1.40
2022-09-05T01:26:59.062Z,1.60
2022-09-05T01:29:38.075Z,1.40
2022-09-05T01:32:19.788Z,1.20
2022-09-05T01:34:59.760Z,1.47
2022-09-05T01:37:39.891Z,1.37
2022-09-05T01:40:24.289Z,1.40
2022-09-05T01:43:06.113Z,1.30
2022-09-05T01:45:50.695Z,1.30
2022-09-05T01:48:36.271Z,1.60
2022-09-05T01:51:29.271Z,1.50
2022-09-05T01:54:24.336Z,1.30
2022-09-05T01:57:04.908Z,1.30
2022-09-05T01:59:45.843Z,1.50
2022-09-05T02:02:25.832Z,1.47
2022-09-05T02:05:47.438Z,1.40
2022-09-05T02:08:25.904Z,1.40
2022-09-05T02:11:07.266Z,1.30
2022-09-05T02:14:02.013Z,1.60
2022-09-05T02:16:43.673Z,1.40
2022-09-05T02:19:23.915Z,1.37
2022-09-05T02:22:01.861Z,1.17
2022-09-05T02:24:39.382Z,1.63
2022-09-05T02:27:31.541Z,1.33
2022-09-05T02:30:13.228Z,1.77
2022-09-05T02:32:55.856Z,1.40
2022-09-05T02:35:31.892Z,1.40
2022-09-05T02:40:19.011Z,1.30
2022-09-05T02:45:12.201Z,1.80
2022-09-05T02:45:21.089Z,1.37
2022-09-05T02:47:06.791Z,1.80
2022-09-05T02:52:14.246Z,1.87
2022-09-05T02:57:27.516Z,1.67
2022-09-05T02:57:36.372Z,1.50
2022-09-05T02:59:09.485Z,1.50
2022-09-05T03:01:59.810Z,1.70
2022-09-05T03:04:41.113Z,1.67
2022-09-05T03:07:24.602Z,1.30
2022-09-05T03:10:11.632Z,1.47
2022-09-05T03:13:12.037Z,1.60
2022-09-05T03:16:32.841Z,1.80
2022-09-05T03:19:51.991Z,1.60
2022-09-05T03:23:02.392Z,1.50
2022-09-05T03:26:09.028Z,1.57
2022-09-05T03:29:08.751Z,1.60
2022-09-05T03:32:02.401Z,1.77
2022-09-05T03:34:55.681Z,1.97
2022-09-05T03:37:48.246Z,1.70
2022-09-05T03:40:39.039Z,1.87
2022-09-05T03:43:31.281Z,1.73
2022-09-05T03:46:11.279Z,2.03
2022-09-05T03:49:16.224Z,1.70
2022-09-05T03:57:05.969Z,1.73
2022-09-05T03:57:24.819Z,1.73
2022-09-05T03:58:22.688Z,1.90
2022-09-05T04:01:17.574Z,2.07
2022-09-05T04:08:15.724Z,2.07
2022-09-05T04:08:19.632Z,1.97
2022-09-05T04:09:54.763Z,1.80
2022-09-05T04:12:29.238Z,2.67
2022-09-05T04:15:03.093Z,1.80
2022-09-05T04:17:38.877Z,2.17
2022-09-05T04:20:13.897Z,1.77
2022-09-05T04:23:11.547Z,2.00
2022-09-05T04:25:58.500Z,2.10
2022-09-05T04:28:57.238Z,1.70
2022-09-05T04:31:37.676Z,1.73
2022-09-05T04:34:37.898Z,2.10
2022-09-05T04:37:09.888Z,2.30
2022-09-05T04:39:39.608Z,1.90
2022-09-05T04:42:22.111Z,2.60
2022-09-05T04:44:55.794Z,2.27
2022-09-05T04:47:32.176Z,2.07
2022-09-05T04:50:10.104Z,2.13
2022-09-05T04:53:06.971Z,1.90
2022-09-05T04:55:46.824Z,1.90
2022-09-05T04:58:50.742Z,2.03
2022-09-05T05:06:03.208Z,1.85
2022-09-05T05:06:11.033Z,2.08
2022-09-05T05:07:19.970Z,3.08
2022-09-05T05:10:25.526Z,2.40
2022-09-05T05:18:00.261Z,1.88
2022-09-05T05:18:09.596Z,2.00
2022-09-05T05:18:59.483Z,2.00
2022-09-05T05:21:34.658Z,1.92
2022-09-05T05:24:12.937Z,2.60
2022-09-05T05:26:49.340Z,2.05
2022-09-05T05:29:36.597Z,1.90
2022-09-05T05:32:08.258Z,2.00
2022-09-05T05:34:43.173Z,1.85
2022-09-05T05:37:21.003Z,2.10
2022-09-05T05:40:02.088Z,1.90
2022-09-05T05:42:32.548Z,1.80
2022-09-05T05:45:02.549Z,2.08
2022-09-05T05:47:37.039Z,2.03
2022-09-05T05:50:11.608Z,2.00
2022-09-05T05:53:29.183Z,1.73
2022-09-05T05:56:38.119Z,1.52
2022-09-05T05:59:56.431Z,1.48
2022-09-05T06:03:26.532Z,1.50
2022-09-05T06:06:45.914Z,1.50
2022-09-05T06:14:47.974Z,1.80
2022-09-05T06:15:03.644Z,1.73
2022-09-05T06:16:50.445Z,1.42
2022-09-05T06:21:48.122Z,1.60
2022-09-05T06:23:36.694Z,1.80
2022-09-05T06:26:32.838Z,2.00
2022-09-05T06:29:13.087Z,2.05
2022-09-05T06:32:01.272Z,1.73
2022-09-05T06:35:00.025Z,1.58
2022-09-05T06:37:42.810Z,1.60
2022-09-05T06:40:19.221Z,1.85
2022-09-05T06:43:19.382Z,1.77
2022-09-05T06:46:05.173Z,1.73
2022-09-05T06:48:59.985Z,2.05
2022-09-05T06:52:29.027Z,1.80
2022-09-05T06:55:30.251Z,1.60
2022-09-05T06:58:27.065Z,1.63
2022-09-05T07:00:59.515Z,1.88
2022-09-05T07:03:40.500Z,2.00
2022-09-05T07:06:19.854Z,1.65
2022-09-05T07:08:59.538Z,2.03
2022-09-05T07:11:39.778Z,1.75
2022-09-05T07:14:19.858Z,1.85
2022-09-05T07:16:55.889Z,1.20
2022-09-05T07:19:30.498Z,1.60
2022-09-05T07:22:47.156Z,1.70
2022-09-05T07:25:18.675Z,1.48
2022-09-05T07:28:29.835Z,1.23
2022-09-05T07:30:50.980Z,1.65
2022-09-05T07:33:26.386Z,1.30
2022-09-05T07:35:59.008Z,1.48
2022-09-05T07:38:49.050Z,1.40
2022-09-05T07:41:25.497Z,1.85
2022-09-05T07:43:59.409Z,1.40
2022-09-05T07:46:33.179Z,1.70
2022-09-05T07:49:07.808Z,1.90
2022-09-05T07:56:47.518Z,1.40
2022-09-05T07:56:52.223Z,1.60
2022-09-05T07:57:31.197Z,1.27
2022-09-05T08:00:26.168Z,1.20
2022-09-05T08:02:57.657Z,1.30
2022-09-05T08:05:37.678Z,1.20
2022-09-05T08:08:12.377Z,1.20
2022-09-05T08:11:23.994Z,1.23
2022-09-05T08:13:57.846Z,1.40
2022-09-05T08:16:45.083Z,1.20
2022-09-05T08:19:38.338Z,0.90
2022-09-05T08:22:15.297Z,1.10
2022-09-05T08:24:53.419Z,1.40
2022-09-05T08:27:26.097Z,1.40
2022-09-05T08:30:26.355Z,1.20
2022-09-05T08:33:11.219Z,1.20
2022-09-05T08:35:45.900Z,1.10
2022-09-05T08:38:19.356Z,1.30
2022-09-05T08:41:00.407Z,1.27
2022-09-05T08:46:44.899Z,1.10
2022-09-05T08:46:44.992Z,1.45
2022-09-05T08:49:41.366Z,1.48
2022-09-05T08:52:19.738Z,1.20
2022-09-05T08:55:05.814Z,1.50
2022-09-05T08:58:02.619Z,1.40
2022-09-05T09:00:37.128Z,1.48
2022-09-05T09:03:22.556Z,1.27
2022-09-05T09:06:16.222Z,1.08
2022-09-05T09:09:10.858Z,1.25
2022-09-05T09:11:45.979Z,1.13
2022-09-05T09:14:32.857Z,1.40
2022-09-05T09:17:19.492Z,1.27
2022-09-05T09:19:53.257Z,1.33
2022-09-05T09:22:37.220Z,1.33
2022-09-05T09:25:15.212Z,1.45
2022-09-05T09:28:47.000Z,1.30
2022-09-05T09:31:12.882Z,1.50
2022-09-05T09:33:47.777Z,1.30
2022-09-05T09:36:41.779Z,1.20
2022-09-05T09:39:38.470Z,1.10
2022-09-05T09:42:33.523Z,3.55
2022-09-05T09:45:34.457Z,2.03
2022-09-05T09:48:36.762Z,2.05
2022-09-05T09:51:28.058Z,1.30
2022-09-05T09:54:19.161Z,1.23
2022-09-05T09:57:15.048Z,1.27
2022-09-05T10:00:07.617Z,1.10
2022-09-05T10:06:03.173Z,1.10
2022-09-05T10:10:51.336Z,1.20
2022-09-05T10:10:57.758Z,1.30
2022-09-05T10:13:16.244Z,1.20
2022-09-05T10:16:52.909Z,2.80
2022-09-05T10:20:29.179Z,1.27
2022-09-05T10:23:45.708Z,0.98
2022-09-05T10:26:39.667Z,0.90
2022-09-05T10:29:37.881Z,1.50
2022-09-05T10:34:55.086Z,1.30
2022-09-05T10:35:13.680Z,1.10
2022-09-05T10:37:54.558Z,1.27
2022-09-05T10:40:27.318Z,1.27
2022-09-05T10:43:04.079Z,1.08
2022-09-05T10:45:47.679Z,1.20
2022-09-05T10:48:24.519Z,0.90
2022-09-05T10:51:02.159Z,1.00
2022-09-05T10:53:39.318Z,1.10
2022-09-05T10:56:15.965Z,1.10
2022-09-05T11:02:15.688Z,1.35
2022-09-05T11:02:26.499Z,1.10
2022-09-05T11:05:01.621Z,1.10
2022-09-05T11:07:42.108Z,1.40
2022-09-05T11:10:17.719Z,1.20
2022-09-05T11:13:00.599Z,1.20
2022-09-05T11:15:43.993Z,1.17
2022-09-05T11:18:55.089Z,1.10
2022-09-05T11:21:30.880Z,1.63
2022-09-05T11:24:06.520Z,1.38
2022-09-05T11:26:42.668Z,1.10
2022-09-05T11:29:18.479Z,1.27
2022-09-05T11:33:28.206Z,1.17
2022-09-05T11:39:47.982Z,1.30
2022-09-05T11:40:04.609Z,1.20
2022-09-05T11:42:13.546Z,1.20
2022-09-05T11:45:09.201Z,1.13
2022-09-05T11:48:20.005Z,1.08
2022-09-05T11:51:01.800Z,1.30
2022-09-05T11:54:00.279Z,1.17
2022-09-05T11:57:33.858Z,1.00
2022-09-05T12:00:31.328Z,1.20
2022-09-05T12:03:44.430Z,1.20
2022-09-05T12:07:03.555Z,1.30
2022-09-05T12:10:46.798Z,0.98
2022-09-05T12:13:36.189Z,1.42
2022-09-05T12:16:20.550Z,0.90
2022-09-05T12:19:19.708Z,1.00
2022-09-05T12:22:14.469Z,1.20
2022-09-05T12:25:27.086Z,1.50
2022-09-05T12:28:28.521Z,1.27
2022-09-05T12:31:09.892Z,1.48
2022-09-05T12:35:52.994Z,1.33
2022-09-05T12:40:48.190Z,2.28
2022-09-05T12:41:32.331Z,1.40
2022-09-05T12:42:39.288Z,1.23
2022-09-05T12:45:27.147Z,1.23
2022-09-05T12:48:14.559Z,1.30
2022-09-05T12:50:52.401Z,1.27
2022-09-05T12:53:25.788Z,1.27
2022-09-05T12:56:47.962Z,1.38
2022-09-05T13:03:03.930Z,1.25
2022-09-05T13:03:09.581Z,1.60
2022-09-05T13:04:38.414Z,1.30
2022-09-05T13:07:28.000Z,1.35
2022-09-05T13:13:39.641Z,1.23
2022-09-05T13:14:56.090Z,1.30
2022-09-05T13:15:51.533Z,1.27
2022-09-05T13:18:24.479Z,1.25
2022-09-05T13:21:05.669Z,1.05
2022-09-05T13:23:41.879Z,1.00
2022-09-05T13:26:18.030Z,1.27
2022-09-05T13:29:07.056Z,1.00
2022-09-05T13:38:00.697Z,1.30
2022-09-05T13:38:14.031Z,1.30
2022-09-05T13:38:30.437Z,1.20
2022-09-05T13:40:47.599Z,1.00
2022-09-05T13:43:26.757Z,1.15
2022-09-05T13:46:11.350Z,1.23
2022-09-05T13:51:44.217Z,1.17
2022-09-05T13:54:36.603Z,1.10
2022-09-05T13:57:32.343Z,0.90
2022-09-05T14:01:03.625Z,1.08
2022-09-05T14:04:04.081Z,1.10
2022-09-05T14:07:43.830Z,1.23
2022-09-05T14:10:17.632Z,1.20
2022-09-05T14:13:00.410Z,1.05
2022-09-05T14:15:52.267Z,1.20
2022-09-05T14:18:24.773Z,1.30
2022-09-05T14:21:17.525Z,1.13
2022-09-05T14:23:54.231Z,1.20
2022-09-05T14:26:29.271Z,1.20
2022-09-05T14:29:05.958Z,1.23
2022-09-05T14:37:35.182Z,1.00
2022-09-05T14:37:39.201Z,1.02
2022-09-05T14:38:09.569Z,1.20
2022-09-05T14:41:32.002Z,1.15
2022-09-05T14:44:33.309Z,1.30
2022-09-05T14:47:36.097Z,1.20
2022-09-05T14:50:39.516Z,1.20
2022-09-05T14:57:06.854Z,1.35
2022-09-05T15:02:48.694Z,1.20
2022-09-05T15:02:52.077Z,1.20
2022-09-05T15:05:11.760Z,1.05
2022-09-05T15:07:43.708Z,1.42
2022-09-05T15:12:15.017Z,1.10
2022-09-05T15:13:25.824Z,1.20
2022-09-05T15:16:02.789Z,1.33
2022-09-05T15:18:38.396Z,1.20
2022-09-05T15:21:33.231Z,1.15
2022-09-05T15:24:15.200Z,1.00
2022-09-05T15:26:53.963Z,1.73
2022-09-05T15:29:28.879Z,1.17
2022-09-05T15:32:15.868Z,1.20
2022-09-05T15:34:45.669Z,1.50
2022-09-05T15:37:29.214Z,1.27
2022-09-05T15:40:22.510Z,1.40
2022-09-05T15:42:58.369Z,1.17
2022-09-05T15:45:33.208Z,1.52
2022-09-05T15:48:09.129Z,1.40
2022-09-05T15:50:46.756Z,1.50
2022-09-05T15:53:25.499Z,1.40
2022-09-05T15:56:01.048Z,1.33
2022-09-05T15:58:53.452Z,1.40
2022-09-05T16:01:59.854Z,1.58
2022-09-05T16:10:27.219Z,1.30
2022-09-05T16:10:38.651Z,1.20
2022-09-05T16:10:48.603Z,1.10
2022-09-05T16:13:14.740Z,1.30
2022-09-05T16:21:02.389Z,2.95
2022-09-05T16:23:24.215Z,7.10
2022-09-05T16:23:33.142Z,5.68
2022-09-05T16:24:58.509Z,1.33
2022-09-05T16:27:42.988Z,1.65
2022-09-05T16:30:21.238Z,1.50
2022-09-05T16:32:56.477Z,1.30
2022-09-05T16:35:26.921Z,1.33
2022-09-05T16:38:05.438Z,1.40
2022-09-05T16:40:40.440Z,1.23
2022-09-05T16:43:14.409Z,1.33
2022-09-05T16:45:51.623Z,1.33
2022-09-05T16:48:37.210Z,1.40
2022-09-05T16:51:16.729Z,1.30
2022-09-05T16:53:58.984Z,1.40
2022-09-05T16:56:36.278Z,1.50
2022-09-05T16:59:11.378Z,1.60
2022-09-05T17:02:05.460Z,1.75
2022-09-05T17:05:05.146Z,1.50
2022-09-05T17:07:54.774Z,1.63
2022-09-05T17:10:34.049Z,1.45
2022-09-05T17:13:04.926Z,1.33
2022-09-05T17:15:38.091Z,1.63
2022-09-05T17:18:27.861Z,1.70
2022-09-05T17:21:07.368Z,1.80
2022-09-05T17:29:21.209Z,1.90
2022-09-05T17:29:47.079Z,2.17
2022-09-05T17:32:51.209Z,1.52
2022-09-05T17:35:54.838Z,2.10
2022-09-05T17:38:50.770Z,1.77
2022-09-05T17:41:50.087Z,2.13
2022-09-05T17:44:24.959Z,2.22
2022-09-05T17:47:14.575Z,2.58
2022-09-05T17:49:47.408Z,2.20
2022-09-05T17:52:23.691Z,2.22
2022-09-05T17:54:56.529Z,2.20
2022-09-05T17:57:45.569Z,2.50
2022-09-05T18:01:00.183Z,2.35
2022-09-05T18:04:16.291Z,2.30
2022-09-05T18:06:59.599Z,1.95
2022-09-05T18:10:12.924Z,2.20
2022-09-05T18:13:31.772Z,2.22
2022-09-05T18:16:12.324Z,2.40
2022-09-05T18:19:28.914Z,2.95
2022-09-05T18:21:53.610Z,2.28
2022-09-05T18:24:36.758Z,2.40
2022-09-05T18:28:03.783Z,2.05
2022-09-05T18:30:26.330Z,2.22
2022-09-05T18:33:56.185Z,2.80
2022-09-05T18:36:36.399Z,2.73
2022-09-05T18:39:43.215Z,2.37
2022-09-05T18:42:34.508Z,2.50
2022-09-05T18:45:15.142Z,3.03
2022-09-05T18:47:57.326Z,2.80
2022-09-05T18:50:32.869Z,2.95
2022-09-05T18:53:09.225Z,2.28
2022-09-05T18:56:13.923Z,2.60
2022-09-05T18:59:10.814Z,2.88
2022-09-05T19:01:46.270Z,2.60
2022-09-05T19:04:40.967Z,2.57
2022-09-05T19:07:15.193Z,2.40
2022-09-05T19:10:34.889Z,2.67
2022-09-05T19:12:57.648Z,2.90
2022-09-05T19:15:35.983Z,2.87
2022-09-05T19:18:27.393Z,2.43
2022-09-05T19:21:12.403Z,2.67
2022-09-05T19:23:52.047Z,2.53
2022-09-05T19:26:24.159Z,2.53
2022-09-05T19:36:49.069Z,2.03
2022-09-05T19:36:53.089Z,1.80
2022-09-05T19:37:12.347Z,2.10
2022-09-05T19:37:44.560Z,1.87
2022-09-05T19:46:17.005Z,1.70
2022-09-05T19:47:47.596Z,2.00
2022-09-05T19:47:51.863Z,2.05
2022-09-05T19:49:10.640Z,2.20
2022-09-05T19:51:43.200Z,2.07
2022-09-05T19:54:27.576Z,2.20
2022-09-05T19:57:08.080Z,2.43
2022-09-05T19:59:41.095Z,2.17
2022-09-05T20:02:20.216Z,2.50
2022-09-05T20:04:54.695Z,2.30
2022-09-05T20:07:27.654Z,2.53
2022-09-05T20:09:59.656Z,2.67
2022-09-05T20:12:33.258Z,2.83
2022-09-05T20:15:20.960Z,2.47
2022-09-05T20:17:51.213Z,2.80
2022-09-05T20:20:25.973Z,2.57
2022-09-05T20:23:00.174Z,3.10
2022-09-05T20:25:39.993Z,2.63
2022-09-05T20:28:12.456Z,3.13
2022-09-05T20:30:45.108Z,2.50
2022-09-05T20:33:21.177Z,2.90
2022-09-05T20:39:47.516Z,2.70
2022-09-05T20:43:16.584Z,2.97
2022-09-05T20:43:18.671Z,3.07
2022-09-05T20:44:43.459Z,2.83
2022-09-05T20:53:12.434Z,2.77
2022-09-05T20:54:07.504Z,3.10
2022-09-05T20:54:16.437Z,2.93
2022-09-05T20:56:07.429Z,2.87
2022-09-05T20:58:40.616Z,3.07
2022-09-05T21:01:21.163Z,2.93
2022-09-05T21:03:57.977Z,3.23
2022-09-05T21:06:33.552Z,2.97
2022-09-05T21:09:22.601Z,2.60
2022-09-05T21:11:55.417Z,3.40
2022-09-05T21:14:28.696Z,2.90
2022-09-05T21:17:01.268Z,2.90
2022-09-05T21:19:43.683Z,2.90
2022-09-05T21:22:26.672Z,2.97
2022-09-05T21:25:25.981Z,2.83
2022-09-05T21:28:36.431Z,2.87
2022-09-05T21:31:13.705Z,2.90
2022-09-05T21:33:46.454Z,2.87
2022-09-05T21:36:17.424Z,3.07
2022-09-05T21:38:47.319Z,3.00
2022-09-05T21:41:19.279Z,2.70
2022-09-05T21:47:35.074Z,2.70
2022-09-05T21:47:49.353Z,2.70
2022-09-05T21:49:35.450Z,2.43
2022-09-05T21:52:06.478Z,2.93
2022-09-05T21:59:14.594Z,2.50
2022-09-05T21:59:18.748Z,2.93
2022-09-05T22:00:24.919Z,2.70
2022-09-05T22:02:54.477Z,2.43
2022-09-05T22:05:25.524Z,2.47
2022-09-05T22:07:56.039Z,2.43
2022-09-05T22:10:32.458Z,3.13
2022-09-05T22:13:16.837Z,2.60
2022-09-05T22:15:48.759Z,2.90
2022-09-05T22:18:18.378Z,2.57
2022-09-05T22:21:31.800Z,2.80
2022-09-05T22:23:44.596Z,2.67
2022-09-05T22:26:16.077Z,2.67
2022-09-05T22:28:49.249Z,3.20
2022-09-05T22:31:19.177Z,2.67
2022-09-05T22:33:50.834Z,2.67
2022-09-05T22:36:20.874Z,2.77
2022-09-05T22:38:50.716Z,3.20
2022-09-05T22:41:29.942Z,2.80
2022-09-05T22:44:02.237Z,2.37
2022-09-05T22:46:32.271Z,2.80
2022-09-05T22:49:01.839Z,2.50
2022-09-05T22:51:31.601Z,2.90
2022-09-05T22:54:01.269Z,2.60
2022-09-05T22:56:32.877Z,2.93
2022-09-05T22:59:05.308Z,2.87
2022-09-05T23:01:35.402Z,2.90
2022-09-05T23:04:05.594Z,2.60
2022-09-05T23:06:35.199Z,2.60
2022-09-05T23:09:04.833Z,3.07
2022-09-05T23:11:34.461Z,3.17
2022-09-05T23:14:05.382Z,2.63
2022-09-05T23:16:34.746Z,3.03
2022-09-05T23:19:04.252Z,2.73
2022-09-05T23:21:33.435Z,2.80
2022-09-05T23:24:40.045Z,2.60
2022-09-05T23:27:09.645Z,2.70
2022-09-05T23:30:16.533Z,2.60
2022-09-05T23:32:48.278Z,2.23
2022-09-05T23:35:54.727Z,2.63
2022-09-05T23:39:01.285Z,2.73
2022-09-05T23:42:08.046Z,2.73
2022-09-05T23:44:37.440Z,2.20
2022-09-05T23:47:07.277Z,2.47
2022-09-05T23:49:38.421Z,2.60
2022-09-05T23:52:07.918Z,2.53
2022-09-05T23:55:14.647Z,2.50
2022-09-05T23:57:44.157Z,2.30
